createdAt,value
2023-04-04T00:00:35.737Z,1.85
2023-04-04T00:03:03.171Z,2.10
2023-04-04T00:05:30.526Z,2.45
2023-04-04T00:07:57.375Z,1.98
2023-04-04T00:10:24.651Z,2.00
2023-04-04T00:12:51.978Z,1.60
2023-04-04T00:15:19.257Z,1.95
2023-04-04T00:17:46.666Z,1.92
2023-04-04T00:20:14.403Z,1.60
2023-04-04T00:22:42.371Z,1.60
2023-04-04T00:25:10.900Z,2.35
2023-04-04T00:27:38.460Z,1.90
2023-04-04T00:30:06.938Z,1.83
2023-04-04T00:32:34.335Z,2.10
2023-04-04T00:35:01.806Z,1.67
2023-04-04T00:37:29.368Z,1.65
2023-04-04T00:39:56.777Z,2.30
2023-04-04T00:42:24.203Z,2.03
2023-04-04T00:44:52.403Z,2.10
2023-04-04T00:47:23.455Z,2.03
2023-04-04T00:49:51.327Z,1.90
2023-04-04T00:52:18.619Z,1.80
2023-04-04T00:54:45.888Z,1.63
2023-04-04T00:57:13.378Z,2.33
2023-04-04T00:59:40.845Z,2.00
2023-04-04T01:02:08.601Z,1.92
2023-04-04T01:04:36.544Z,2.22
2023-04-04T01:07:04.540Z,2.65
2023-04-04T01:09:31.855Z,1.75
2023-04-04T01:11:59.713Z,1.90
2023-04-04T01:14:29.960Z,2.00
2023-04-04T01:16:57.441Z,1.90
2023-04-04T01:19:34.354Z,2.08
2023-04-04T01:22:06.747Z,2.10
2023-04-04T01:24:34.906Z,2.70
2023-04-04T01:27:04.840Z,2.08
2023-04-04T01:29:34.154Z,2.50
2023-04-04T01:32:10.194Z,1.90
2023-04-04T01:34:57.495Z,1.70
2023-04-04T01:37:36.224Z,1.87
2023-04-04T01:40:06.848Z,2.20
2023-04-04T01:42:36.072Z,2.30
2023-04-04T01:45:03.538Z,2.08
2023-04-04T01:47:44.582Z,2.22
2023-04-04T01:50:18.514Z,2.55
2023-04-04T01:52:45.813Z,1.85
2023-04-04T01:55:13.098Z,2.10
2023-04-04T01:57:40.539Z,2.28
2023-04-04T02:00:08.261Z,2.10
2023-04-04T02:02:44.754Z,2.17
2023-04-04T02:05:12.576Z,1.90
2023-04-04T02:07:40.585Z,1.92
2023-04-04T02:10:18.513Z,2.20
2023-04-04T02:12:46.025Z,2.10
2023-04-04T02:15:13.405Z,2.40
2023-04-04T02:17:40.898Z,2.35
2023-04-04T02:20:08.821Z,2.05
2023-04-04T02:22:36.386Z,2.33
2023-04-04T02:25:04.033Z,2.00
2023-04-04T02:27:31.367Z,2.47
2023-04-04T02:29:58.764Z,2.03
2023-04-04T02:32:26.029Z,2.58
2023-04-04T02:34:53.319Z,2.20
2023-04-04T02:37:21.846Z,2.13
2023-04-04T02:39:52.340Z,2.20
2023-04-04T02:42:19.603Z,1.80
2023-04-04T02:44:47.161Z,2.10
2023-04-04T02:47:17.945Z,1.90
2023-04-04T02:49:47.173Z,2.50
2023-04-04T02:52:15.155Z,2.33
2023-04-04T02:54:46.317Z,2.38
2023-04-04T02:57:23.601Z,2.05
2023-04-04T02:59:50.882Z,2.22
2023-04-04T03:02:18.185Z,2.78
2023-04-04T03:04:45.624Z,2.25
2023-04-04T03:07:12.941Z,1.75
2023-04-04T03:09:45.113Z,2.42
2023-04-04T03:12:12.656Z,2.55
2023-04-04T03:14:40.745Z,2.20
2023-04-04T03:17:09.623Z,2.25
2023-04-04T03:19:37.063Z,2.05
2023-04-04T03:22:04.364Z,2.58
2023-04-04T03:24:34.662Z,2.20
2023-04-04T03:27:01.999Z,2.45
2023-04-04T03:29:29.570Z,2.22
2023-04-04T03:31:58.074Z,2.47
2023-04-04T03:34:27.318Z,2.20
2023-04-04T03:36:54.738Z,2.28
2023-04-04T03:39:22.033Z,2.40
2023-04-04T03:41:49.428Z,2.33
2023-04-04T03:44:17.270Z,2.25
2023-04-04T03:46:45.029Z,2.13
2023-04-04T03:49:14.018Z,2.03
2023-04-04T03:51:41.756Z,2.05
2023-04-04T03:54:09.464Z,2.17
2023-04-04T03:56:36.804Z,2.20
2023-04-04T03:59:06.880Z,2.92
2023-04-04T04:01:34.259Z,2.17
2023-04-04T04:04:03.112Z,2.33
2023-04-04T04:06:30.552Z,3.05
2023-04-04T04:08:58.436Z,2.13
2023-04-04T04:11:25.789Z,2.53
2023-04-04T04:13:53.666Z,2.28
2023-04-04T04:16:22.051Z,2.50
2023-04-04T04:18:51.090Z,2.30
2023-04-04T04:21:26.860Z,2.42
2023-04-04T04:23:54.326Z,2.28
2023-04-04T04:26:22.424Z,2.17
2023-04-04T04:28:50.482Z,2.80
2023-04-04T04:31:25.770Z,1.92
2023-04-04T04:33:53.777Z,1.58
2023-04-04T04:36:26.386Z,2.03
2023-04-04T04:39:17.545Z,2.10
2023-04-04T04:41:58.129Z,1.92
2023-04-04T04:44:26.307Z,2.28
2023-04-04T04:46:56.115Z,2.10
2023-04-04T04:49:23.579Z,2.40
2023-04-04T04:51:52.129Z,2.55
2023-04-04T04:54:21.049Z,2.42
2023-04-04T04:56:53.995Z,2.10
2023-04-04T04:59:22.442Z,2.15
2023-04-04T05:01:50.633Z,2.08
2023-04-04T05:04:18.852Z,2.30
2023-04-04T05:06:59.181Z,2.15
2023-04-04T05:09:26.878Z,1.92
2023-04-04T05:11:54.562Z,2.22
2023-04-04T05:14:26.594Z,2.30
2023-04-04T05:16:57.476Z,2.10
2023-04-04T05:19:29.869Z,2.15
2023-04-04T05:21:58.641Z,2.40
2023-04-04T05:24:32.937Z,2.20
2023-04-04T05:27:01.501Z,2.08
2023-04-04T05:29:34.508Z,2.47
2023-04-04T05:32:03.655Z,2.63
2023-04-04T05:34:31.824Z,2.17
2023-04-04T05:36:59.949Z,2.40
2023-04-04T05:39:27.511Z,2.10
2023-04-04T05:42:02.983Z,2.35
2023-04-04T05:44:34.672Z,2.25
2023-04-04T05:47:02.391Z,2.20
2023-04-04T05:49:30.577Z,2.55
2023-04-04T05:52:00.751Z,2.00
2023-04-04T05:54:29.915Z,2.55
2023-04-04T05:56:59.323Z,2.58
2023-04-04T05:59:38.907Z,2.40
2023-04-04T06:02:08.880Z,2.30
2023-04-04T06:04:41.178Z,2.20
2023-04-04T06:07:10.903Z,2.13
2023-04-04T06:09:42.803Z,2.60
2023-04-04T06:12:10.294Z,2.47
2023-04-04T06:14:38.004Z,2.70
2023-04-04T06:17:08.010Z,2.50
2023-04-04T06:19:36.123Z,2.08
2023-04-04T06:22:03.743Z,2.90
2023-04-04T06:24:35.480Z,2.55
2023-04-04T06:27:04.470Z,2.50
2023-04-04T06:29:32.179Z,2.30
2023-04-04T06:32:01.447Z,2.35
2023-04-04T06:34:41.515Z,2.08
2023-04-04T06:37:10.036Z,2.13
2023-04-04T06:39:44.824Z,3.50
2023-04-04T06:42:21.557Z,2.20
2023-04-04T06:44:51.043Z,1.55
2023-04-04T06:47:18.345Z,2.25
2023-04-04T06:49:45.645Z,2.00
2023-04-04T06:52:12.959Z,2.20
2023-04-04T06:54:41.459Z,2.22
2023-04-04T06:57:09.043Z,2.00
2023-04-04T06:59:36.282Z,2.38
2023-04-04T07:02:03.783Z,2.05
2023-04-04T07:04:34.828Z,2.20
2023-04-04T07:07:02.241Z,2.30
2023-04-04T07:09:29.830Z,1.90
2023-04-04T07:11:57.332Z,2.25
2023-04-04T07:14:25.804Z,1.98
2023-04-04T07:16:53.837Z,2.30
2023-04-04T07:19:24.176Z,1.95
2023-04-04T07:21:51.518Z,1.90
2023-04-04T07:24:18.781Z,2.25
2023-04-04T07:26:46.110Z,2.42
2023-04-04T07:29:13.440Z,2.53
2023-04-04T07:31:40.862Z,1.88
2023-04-04T07:34:08.150Z,2.13
2023-04-04T07:36:35.439Z,2.35
2023-04-04T07:39:02.682Z,1.88
2023-04-04T07:41:29.945Z,2.05
2023-04-04T07:43:57.278Z,2.20
2023-04-04T07:46:24.663Z,2.08
2023-04-04T07:48:51.932Z,2.13
2023-04-04T07:51:23.936Z,2.28
2023-04-04T07:53:51.296Z,2.40
2023-04-04T07:56:18.518Z,2.28
2023-04-04T07:58:45.863Z,2.00
2023-04-04T08:01:13.124Z,2.00
2023-04-04T08:03:40.597Z,2.45
2023-04-04T08:06:08.083Z,2.00
2023-04-04T08:08:35.569Z,2.00
2023-04-04T08:11:02.928Z,2.50
2023-04-04T08:13:30.587Z,1.90
2023-04-04T08:15:57.956Z,2.30
2023-04-04T08:18:25.250Z,2.08
2023-04-04T08:20:52.498Z,2.10
2023-04-04T08:23:19.739Z,1.73
2023-04-04T08:25:47.185Z,1.65
2023-04-04T08:28:15.657Z,1.80
2023-04-04T08:30:42.992Z,2.20
2023-04-04T08:33:10.403Z,2.08
2023-04-04T08:35:37.312Z,2.33
2023-04-04T08:38:08.264Z,1.63
2023-04-04T08:40:35.721Z,1.98
2023-04-04T08:43:05.857Z,1.75
2023-04-04T08:45:33.515Z,2.13
2023-04-04T08:48:03.307Z,1.88
2023-04-04T08:50:31.261Z,1.80
2023-04-04T08:53:01.597Z,1.90
2023-04-04T08:55:28.844Z,2.00
2023-04-04T08:57:56.202Z,2.05
2023-04-04T09:00:23.706Z,2.00
2023-04-04T09:02:58.628Z,2.40
2023-04-04T09:05:27.330Z,2.10
2023-04-04T09:07:54.994Z,2.00
2023-04-04T09:10:23.456Z,2.30
2023-04-04T09:12:55.505Z,1.90
2023-04-04T09:15:24.873Z,1.90
2023-04-04T09:17:52.176Z,2.17
2023-04-04T09:20:47.155Z,2.58
2023-04-04T09:23:16.237Z,1.60
2023-04-04T09:26:03.650Z,1.77
2023-04-04T09:28:32.341Z,1.58
2023-04-04T09:31:05.712Z,1.70
2023-04-04T09:33:33.667Z,1.70
2023-04-04T09:36:13.109Z,2.08
2023-04-04T09:38:45.726Z,2.15
2023-04-04T09:41:16.734Z,1.75
2023-04-04T09:43:47.866Z,1.88
2023-04-04T09:46:16.079Z,1.65
2023-04-04T09:48:50.871Z,1.92
2023-04-04T09:51:18.195Z,1.73
2023-04-04T09:53:48.413Z,2.03
2023-04-04T09:56:15.815Z,1.42
2023-04-04T09:59:00.284Z,1.90
2023-04-04T10:01:31.009Z,1.42
2023-04-04T10:03:58.419Z,1.60
2023-04-04T10:06:26.994Z,1.70
2023-04-04T10:08:54.382Z,1.73
2023-04-04T10:11:34.006Z,1.27
2023-04-04T10:14:05.488Z,1.75
2023-04-04T10:16:33.767Z,1.50
2023-04-04T10:19:02.835Z,1.95
2023-04-04T10:21:30.031Z,1.75
2023-04-04T10:23:59.353Z,1.70
2023-04-04T10:26:27.200Z,1.90
2023-04-04T10:28:55.128Z,1.48
2023-04-04T10:31:26.313Z,1.52
2023-04-04T10:34:12.846Z,1.55
2023-04-04T10:37:02.746Z,1.73
2023-04-04T10:39:55.609Z,1.30
2023-04-04T10:42:24.359Z,2.00
2023-04-04T10:44:52.025Z,1.55
2023-04-04T10:47:22.174Z,1.50
2023-04-04T10:49:51.128Z,1.90
2023-04-04T10:52:20.879Z,1.55
2023-04-04T10:54:52.912Z,1.65
2023-04-04T10:57:23.274Z,1.58
2023-04-04T11:00:01.313Z,1.30
2023-04-04T11:02:46.686Z,1.80
2023-04-04T11:05:26.714Z,1.20
2023-04-04T11:10:39.406Z,1.52
2023-04-04T11:13:35.827Z,1.40
2023-04-04T11:16:10.469Z,1.70
2023-04-04T11:18:41.656Z,1.60
2023-04-04T11:21:13.863Z,1.35
2023-04-04T11:23:50.403Z,1.83
2023-04-04T11:26:20.096Z,1.58
2023-04-04T11:28:47.638Z,1.50
2023-04-04T11:31:17.757Z,1.48
2023-04-04T11:34:11.321Z,1.23
2023-04-04T11:36:38.628Z,1.67
2023-04-04T11:39:14.519Z,1.33
2023-04-04T11:41:52.742Z,1.52
2023-04-04T11:44:24.265Z,1.52
2023-04-04T11:47:02.464Z,1.40
2023-04-04T11:49:30.890Z,1.35
2023-04-04T11:51:58.460Z,1.52
2023-04-04T11:54:25.840Z,1.40
2023-04-04T11:56:53.674Z,1.50
2023-04-04T11:59:21.871Z,1.67
2023-04-04T12:01:52.288Z,1.80
2023-04-04T12:04:20.051Z,1.50
2023-04-04T12:06:51.921Z,1.10
2023-04-04T12:09:20.498Z,1.30
2023-04-04T12:11:48.548Z,1.50
2023-04-04T12:14:19.979Z,1.38
2023-04-04T12:16:54.702Z,1.50
2023-04-04T12:19:24.269Z,1.92
2023-04-04T12:21:52.526Z,1.83
2023-04-04T12:24:19.932Z,1.27
2023-04-04T12:26:51.673Z,1.63
2023-04-04T12:29:22.154Z,1.23
2023-04-04T12:31:50.722Z,1.30
2023-04-04T12:34:19.110Z,1.80
2023-04-04T12:36:49.224Z,1.08
2023-04-04T12:39:17.249Z,1.50
2023-04-04T12:41:54.247Z,1.38
2023-04-04T12:44:30.572Z,1.45
2023-04-04T12:47:00.290Z,1.40
2023-04-04T12:49:32.505Z,1.52
2023-04-04T12:52:04.627Z,1.23
2023-04-04T12:54:38.820Z,1.45
2023-04-04T12:57:07.445Z,1.20
2023-04-04T12:59:37.733Z,1.40
2023-04-04T13:02:11.113Z,1.33
2023-04-04T13:04:38.255Z,1.33
2023-04-04T13:07:05.940Z,1.40
2023-04-04T13:09:35.726Z,1.23
2023-04-04T13:12:05.518Z,1.40
2023-04-04T13:15:01.450Z,1.30
2023-04-04T13:17:47.917Z,1.30
2023-04-04T13:22:43.250Z,1.02
2023-04-04T13:25:11.856Z,1.25
2023-04-04T13:27:39.448Z,1.58
2023-04-04T13:30:09.905Z,1.33
2023-04-04T13:32:37.201Z,1.30
2023-04-04T13:35:04.342Z,1.05
2023-04-04T13:37:31.511Z,1.23
2023-04-04T13:39:58.812Z,1.05
2023-04-04T13:42:30.291Z,1.13
2023-04-04T13:44:57.768Z,1.00
2023-04-04T13:47:27.598Z,1.15
2023-04-04T13:49:55.221Z,1.20
2023-04-04T13:52:22.386Z,1.17
2023-04-04T13:54:50.155Z,0.73
2023-04-04T13:57:17.060Z,0.70
2023-04-04T13:59:43.995Z,1.10
2023-04-04T14:02:10.910Z,0.80
2023-04-04T14:04:37.857Z,0.82
2023-04-04T14:07:04.831Z,0.90
2023-04-04T14:09:31.818Z,0.60
2023-04-04T14:11:59.029Z,0.80
2023-04-04T14:14:26.144Z,1.10
2023-04-04T14:16:53.148Z,0.93
2023-04-04T14:19:20.183Z,0.95
2023-04-04T14:21:48.030Z,0.80
2023-04-04T14:24:15.024Z,0.90
2023-04-04T14:26:42.037Z,0.85
2023-04-04T14:29:08.921Z,1.38
2023-04-04T14:31:36.107Z,0.82
2023-04-04T14:34:04.178Z,0.98
2023-04-04T14:36:31.702Z,0.85
2023-04-04T14:38:58.821Z,0.70
2023-04-04T14:41:25.654Z,0.65
2023-04-04T14:43:52.579Z,1.17
2023-04-04T14:46:19.900Z,1.20
2023-04-04T14:48:47.727Z,0.93
2023-04-04T14:51:15.000Z,0.82
2023-04-04T14:53:42.265Z,0.90
2023-04-04T14:56:09.229Z,0.80
2023-04-04T14:58:36.359Z,0.90
2023-04-04T15:01:03.536Z,0.82
2023-04-04T15:03:30.666Z,0.85
2023-04-04T15:05:57.776Z,0.80
2023-04-04T15:08:24.656Z,1.15
2023-04-04T15:10:51.659Z,0.60
2023-04-04T15:13:18.569Z,0.80
2023-04-04T15:15:45.592Z,0.63
2023-04-04T15:18:12.448Z,0.95
2023-04-04T15:20:40.083Z,0.80
2023-04-04T15:23:07.316Z,0.82
2023-04-04T15:25:34.182Z,0.77
2023-04-04T15:28:01.508Z,0.85
2023-04-04T15:30:28.736Z,0.82
2023-04-04T15:32:56.964Z,1.10
2023-04-04T15:35:24.287Z,0.50
2023-04-04T15:37:51.428Z,0.98
2023-04-04T15:40:19.443Z,0.77
2023-04-04T15:42:46.845Z,0.70
2023-04-04T15:45:14.843Z,1.00
2023-04-04T15:47:42.523Z,0.60
2023-04-04T15:50:11.084Z,0.77
2023-04-04T15:52:38.345Z,0.95
2023-04-04T15:55:09.970Z,1.10
2023-04-04T15:57:37.231Z,2.88
2023-04-04T16:00:05.115Z,2.20
2023-04-04T16:02:34.624Z,2.20
2023-04-04T16:05:02.033Z,1.60
2023-04-04T16:07:29.586Z,1.20
2023-04-04T16:09:57.296Z,1.10
2023-04-04T16:12:24.854Z,0.98
2023-04-04T16:14:52.118Z,0.90
2023-04-04T16:17:19.418Z,1.00
2023-04-04T16:19:46.705Z,1.23
2023-04-04T16:22:15.328Z,1.20
2023-04-04T16:24:42.616Z,0.68
2023-04-04T16:27:10.442Z,8.77
2023-04-04T16:29:37.719Z,3.03
2023-04-04T16:32:06.552Z,4.40
2023-04-04T16:34:33.908Z,9.55
2023-04-04T16:37:01.516Z,9.38
2023-04-04T16:39:28.814Z,4.25
2023-04-04T16:41:56.054Z,2.28
2023-04-04T16:44:23.418Z,1.65
2023-04-04T16:46:50.748Z,1.20
2023-04-04T16:49:18.242Z,1.73
2023-04-04T16:51:46.193Z,1.40
2023-04-04T16:54:13.797Z,1.20
2023-04-04T16:56:42.071Z,1.52
2023-04-04T16:59:09.428Z,1.63
2023-04-04T17:01:37.800Z,1.83
2023-04-04T17:04:05.188Z,1.38
2023-04-04T17:06:33.435Z,0.93
2023-04-04T17:09:01.046Z,1.00
2023-04-04T17:11:28.784Z,1.10
2023-04-04T17:13:56.121Z,1.30
2023-04-04T17:16:23.950Z,1.05
2023-04-04T17:18:52.550Z,1.20
2023-04-04T17:21:20.288Z,1.38
2023-04-04T17:23:47.677Z,1.02
2023-04-04T17:26:15.425Z,1.15
2023-04-04T17:28:46.801Z,1.05
2023-04-04T17:31:15.863Z,1.10
2023-04-04T17:33:43.735Z,1.20
2023-04-04T17:36:11.188Z,1.63
2023-04-04T17:38:41.606Z,1.35
2023-04-04T17:41:09.239Z,1.33
2023-04-04T17:43:36.901Z,1.27
2023-04-04T17:46:06.570Z,1.40
2023-04-04T17:48:37.149Z,1.20
2023-04-04T17:51:06.968Z,1.20
2023-04-04T17:53:35.976Z,1.10
2023-04-04T17:56:03.577Z,1.30
2023-04-04T17:58:30.894Z,1.20
2023-04-04T18:00:58.610Z,1.05
2023-04-04T18:03:26.561Z,1.08
2023-04-04T18:05:54.311Z,1.10
2023-04-04T18:08:22.716Z,1.30
2023-04-04T18:10:51.622Z,1.45
2023-04-04T18:13:19.253Z,1.30
2023-04-04T18:15:46.967Z,1.70
2023-04-04T18:18:14.365Z,1.50
2023-04-04T18:20:42.912Z,1.80
2023-04-04T18:23:10.839Z,1.40
2023-04-04T18:25:38.300Z,1.35
2023-04-04T18:28:06.071Z,1.55
2023-04-04T18:30:35.159Z,1.50
2023-04-04T18:33:02.561Z,1.48
2023-04-04T18:35:29.950Z,1.30
2023-04-04T18:37:57.373Z,1.83
2023-04-04T18:40:24.848Z,1.52
2023-04-04T18:42:52.412Z,1.27
2023-04-04T18:45:24.797Z,1.88
2023-04-04T18:47:57.599Z,1.10
2023-04-04T18:50:24.958Z,1.45
2023-04-04T18:52:52.394Z,0.93
2023-04-04T18:55:19.729Z,2.58
2023-04-04T18:57:49.081Z,2.67
2023-04-04T19:00:16.585Z,1.98
2023-04-04T19:02:43.982Z,1.35
2023-04-04T19:05:15.564Z,1.95
2023-04-04T19:07:44.014Z,1.30
2023-04-04T19:10:11.243Z,2.13
2023-04-04T19:12:39.008Z,1.63
2023-04-04T19:15:07.003Z,1.48
2023-04-04T19:17:34.350Z,1.40
2023-04-04T19:20:01.635Z,1.58
2023-04-04T19:22:28.894Z,1.23
2023-04-04T19:24:56.015Z,1.33
2023-04-04T19:27:23.668Z,1.30
2023-04-04T19:29:51.383Z,1.65
2023-04-04T19:32:19.747Z,1.73
2023-04-04T19:34:47.553Z,1.65
2023-04-04T19:37:15.223Z,1.55
2023-04-04T19:39:43.893Z,1.35
2023-04-04T19:42:12.323Z,1.30
2023-04-04T19:44:41.070Z,1.40
2023-04-04T19:47:10.985Z,1.73
2023-04-04T19:49:39.895Z,1.50
2023-04-04T19:52:08.859Z,1.38
2023-04-04T19:54:42.710Z,1.67
2023-04-04T19:57:20.290Z,1.77
2023-04-04T19:59:56.847Z,1.73
2023-04-04T20:02:38.548Z,1.50
2023-04-04T20:05:34.057Z,1.30
2023-04-04T20:08:01.517Z,1.63
2023-04-04T20:10:41.213Z,1.88
2023-04-04T20:13:09.232Z,1.40
2023-04-04T20:15:45.849Z,1.90
2023-04-04T20:18:21.458Z,1.90
2023-04-04T20:21:00.547Z,1.42
2023-04-04T20:23:28.657Z,1.92
2023-04-04T20:25:59.663Z,1.63
2023-04-04T20:28:28.816Z,1.55
2023-04-04T20:30:56.145Z,2.10
2023-04-04T20:33:36.623Z,2.50
2023-04-04T20:36:12.934Z,1.63
2023-04-04T20:38:41.874Z,1.73
2023-04-04T20:41:15.554Z,1.50
2023-04-04T20:43:52.288Z,1.95
2023-04-04T20:46:20.986Z,1.92
2023-04-04T20:48:48.751Z,1.80
2023-04-04T20:51:30.959Z,1.52
2023-04-04T20:54:03.113Z,1.70
2023-04-04T20:56:30.421Z,1.40
2023-04-04T20:58:59.031Z,1.33
2023-04-04T21:01:26.412Z,1.40
2023-04-04T21:03:53.707Z,1.60
2023-04-04T21:06:28.317Z,1.83
2023-04-04T21:08:55.599Z,1.40
2023-04-04T21:11:30.107Z,1.60
2023-04-04T21:13:57.721Z,1.70
2023-04-04T21:16:27.270Z,1.60
2023-04-04T21:18:59.727Z,1.58
2023-04-04T21:21:27.326Z,1.40
2023-04-04T21:24:01.660Z,1.40
2023-04-04T21:26:36.532Z,1.65
2023-04-04T21:29:03.783Z,1.70
2023-04-04T21:31:36.642Z,1.40
2023-04-04T21:34:21.472Z,1.55
2023-04-04T21:36:50.378Z,1.55
2023-04-04T21:39:24.675Z,1.63
2023-04-04T21:41:53.856Z,1.50
2023-04-04T21:44:21.226Z,1.70
2023-04-04T21:46:48.515Z,1.42
2023-04-04T21:49:15.817Z,2.10
2023-04-04T21:51:43.141Z,1.50
2023-04-04T21:54:10.464Z,2.17
2023-04-04T21:56:38.367Z,1.50
2023-04-04T21:59:08.333Z,1.50
2023-04-04T22:01:38.700Z,1.90
2023-04-04T22:04:06.284Z,1.60
2023-04-04T22:06:33.599Z,1.60
2023-04-04T22:09:04.343Z,1.63
2023-04-04T22:11:34.686Z,1.50
2023-04-04T22:14:07.317Z,1.55
2023-04-04T22:16:39.667Z,1.98
2023-04-04T22:19:07.860Z,2.30
2023-04-04T22:21:37.171Z,1.67
2023-04-04T22:24:05.752Z,1.80
2023-04-04T22:26:33.658Z,2.00
2023-04-04T22:29:02.946Z,2.08
2023-04-04T22:31:30.792Z,1.80
2023-04-04T22:33:58.330Z,1.77
2023-04-04T22:36:25.472Z,1.60
2023-04-04T22:38:59.041Z,1.80
2023-04-04T22:41:28.168Z,1.95
2023-04-04T22:43:56.158Z,1.95
2023-04-04T22:46:25.458Z,1.90
2023-04-04T22:49:04.914Z,2.25
2023-04-04T22:51:43.323Z,2.10
2023-04-04T22:54:13.194Z,1.80
2023-04-04T22:56:40.954Z,1.88
2023-04-04T22:59:07.794Z,1.75
2023-04-04T23:01:35.162Z,1.60
2023-04-04T23:04:02.566Z,2.00
2023-04-04T23:06:29.847Z,2.00
2023-04-04T23:08:57.107Z,2.22
2023-04-04T23:11:24.558Z,2.10
2023-04-04T23:13:52.038Z,2.00
2023-04-04T23:16:20.675Z,2.00
2023-04-04T23:18:47.622Z,1.80
2023-04-04T23:21:14.864Z,1.73
2023-04-04T23:23:42.117Z,2.42
2023-04-04T23:26:09.386Z,1.95
2023-04-04T23:28:36.716Z,2.28
2023-04-04T23:31:03.735Z,2.00
2023-04-04T23:33:31.057Z,2.05
2023-04-04T23:35:58.349Z,2.28
2023-04-04T23:38:25.735Z,2.40
2023-04-04T23:40:54.298Z,2.25
2023-04-04T23:43:21.894Z,1.98
2023-04-04T23:45:49.195Z,2.20
2023-04-04T23:48:16.652Z,2.13
2023-04-04T23:50:44.403Z,2.60
2023-04-04T23:53:12.135Z,1.95
2023-04-04T23:55:39.420Z,2.10
2023-04-04T23:58:06.739Z,2.35
